sensor_id;sensor_type;location;lat;lon;timestamp;P1;durP1;ratioP1;P2;durP2;ratioP2
62030;SDS011;62035;52.094;5.112;2024-03-06T00:00:06;30.65;;;17.65;;
62030;SDS011;62035;52.094;5.112;2024-03-06T00:02:34;30.15;;;18.42;;
62030;SDS011;62035;52.094;5.112;2024-03-06T00:05:01;32.67;;;17.60;;
62030;SDS011;62035;52.094;5.112;2024-03-06T00:07:30;30.02;;;17.60;;
62030;SDS011;62035;52.094;5.112;2024-03-06T00:09:58;33.03;;;18.30;;
62030;SDS011;62035;52.094;5.112;2024-03-06T00:12:25;35.35;;;19.95;;
62030;SDS011;62035;52.094;5.112;2024-03-06T00:14:53;32.45;;;18.38;;
62030;SDS011;62035;52.094;5.112;2024-03-06T00:17:19;31.80;;;18.52;;
62030;SDS011;62035;52.094;5.112;2024-03-06T00:19:46;29.45;;;18.33;;
62030;SDS011;62035;52.094;5.112;2024-03-06T00:22:13;30.58;;;18.95;;
62030;SDS011;62035;52.094;5.112;2024-03-06T00:24:40;31.65;;;18.33;;
62030;SDS011;62035;52.094;5.112;2024-03-06T00:27:09;29.00;;;17.30;;
62030;SDS011;62035;52.094;5.112;2024-03-06T00:29:36;34.42;;;18.27;;
62030;SDS011;62035;52.094;5.112;2024-03-06T00:32:04;33.90;;;19.33;;
62030;SDS011;62035;52.094;5.112;2024-03-06T00:34:31;28.88;;;18.05;;
62030;SDS011;62035;52.094;5.112;2024-03-06T00:36:58;35.08;;;19.63;;
62030;SDS011;62035;52.094;5.112;2024-03-06T00:39:26;31.60;;;19.40;;
62030;SDS011;62035;52.094;5.112;2024-03-06T00:41:53;31.95;;;17.88;;
62030;SDS011;62035;52.094;5.112;2024-03-06T00:44:21;31.60;;;17.52;;
62030;SDS011;62035;52.094;5.112;2024-03-06T00:46:49;29.73;;;18.05;;
62030;SDS011;62035;52.094;5.112;2024-03-06T00:49:16;34.45;;;19.15;;
62030;SDS011;62035;52.094;5.112;2024-03-06T00:51:43;36.05;;;17.55;;
62030;SDS011;62035;52.094;5.112;2024-03-06T00:54:10;28.38;;;17.00;;
62030;SDS011;62035;52.094;5.112;2024-03-06T00:56:37;34.53;;;17.83;;
62030;SDS011;62035;52.094;5.112;2024-03-06T00:59:05;32.85;;;17.40;;
62030;SDS011;62035;52.094;5.112;2024-03-06T01:01:33;30.98;;;18.48;;
62030;SDS011;62035;52.094;5.112;2024-03-06T01:04:01;34.17;;;17.35;;
62030;SDS011;62035;52.094;5.112;2024-03-06T01:06:28;30.27;;;18.95;;
62030;SDS011;62035;52.094;5.112;2024-03-06T01:08:55;32.45;;;18.63;;
62030;SDS011;62035;52.094;5.112;2024-03-06T01:11:24;33.08;;;18.15;;
62030;SDS011;62035;52.094;5.112;2024-03-06T01:13:51;31.25;;;17.77;;
62030;SDS011;62035;52.094;5.112;2024-03-06T01:16:19;27.50;;;15.98;;
62030;SDS011;62035;52.094;5.112;2024-03-06T01:18:47;24.80;;;14.32;;
62030;SDS011;62035;52.094;5.112;2024-03-06T01:21:14;25.55;;;14.70;;
62030;SDS011;62035;52.094;5.112;2024-03-06T01:23:42;26.10;;;15.02;;
62030;SDS011;62035;52.094;5.112;2024-03-06T01:26:09;25.10;;;14.40;;
62030;SDS011;62035;52.094;5.112;2024-03-06T01:28:37;25.75;;;14.43;;
62030;SDS011;62035;52.094;5.112;2024-03-06T01:31:04;25.65;;;14.30;;
62030;SDS011;62035;52.094;5.112;2024-03-06T01:33:32;27.30;;;14.77;;
62030;SDS011;62035;52.094;5.112;2024-03-06T01:36:00;23.77;;;14.57;;
62030;SDS011;62035;52.094;5.112;2024-03-06T01:38:27;29.73;;;15.55;;
62030;SDS011;62035;52.094;5.112;2024-03-06T01:40:55;32.03;;;15.70;;
62030;SDS011;62035;52.094;5.112;2024-03-06T01:43:23;29.42;;;15.27;;
62030;SDS011;62035;52.094;5.112;2024-03-06T01:45:51;24.38;;;14.63;;
62030;SDS011;62035;52.094;5.112;2024-03-06T01:48:20;29.75;;;15.38;;
62030;SDS011;62035;52.094;5.112;2024-03-06T01:50:51;30.83;;;15.68;;
62030;SDS011;62035;52.094;5.112;2024-03-06T01:53:21;27.35;;;16.48;;
62030;SDS011;62035;52.094;5.112;2024-03-06T01:55:50;26.85;;;15.52;;
62030;SDS011;62035;52.094;5.112;2024-03-06T01:58:17;28.58;;;16.48;;
62030;SDS011;62035;52.094;5.112;2024-03-06T02:00:46;27.58;;;16.50;;
62030;SDS011;62035;52.094;5.112;2024-03-06T02:03:15;30.23;;;17.35;;
62030;SDS011;62035;52.094;5.112;2024-03-06T02:05:43;29.00;;;17.42;;
62030;SDS011;62035;52.094;5.112;2024-03-06T02:08:10;32.95;;;17.20;;
62030;SDS011;62035;52.094;5.112;2024-03-06T02:10:39;31.65;;;18.77;;
62030;SDS011;62035;52.094;5.112;2024-03-06T02:13:06;44.08;;;19.42;;
62030;SDS011;62035;52.094;5.112;2024-03-06T02:15:35;33.70;;;19.05;;
62030;SDS011;62035;52.094;5.112;2024-03-06T02:18:04;34.13;;;19.80;;
62030;SDS011;62035;52.094;5.112;2024-03-06T02:20:33;33.15;;;18.95;;
62030;SDS011;62035;52.094;5.112;2024-03-06T02:23:00;32.03;;;19.23;;
62030;SDS011;62035;52.094;5.112;2024-03-06T02:25:28;37.72;;;19.70;;
62030;SDS011;62035;52.094;5.112;2024-03-06T02:27:55;30.80;;;17.10;;
62030;SDS011;62035;52.094;5.112;2024-03-06T02:30:22;34.92;;;19.30;;
62030;SDS011;62035;52.094;5.112;2024-03-06T02:32:50;34.65;;;18.88;;
62030;SDS011;62035;52.094;5.112;2024-03-06T02:35:17;32.15;;;19.00;;
62030;SDS011;62035;52.094;5.112;2024-03-06T02:37:46;37.53;;;21.08;;
62030;SDS011;62035;52.094;5.112;2024-03-06T02:40:13;35.33;;;20.30;;
62030;SDS011;62035;52.094;5.112;2024-03-06T02:42:40;35.05;;;19.88;;
62030;SDS011;62035;52.094;5.112;2024-03-06T02:45:07;33.90;;;20.10;;
62030;SDS011;62035;52.094;5.112;2024-03-06T02:47:35;33.40;;;19.90;;
62030;SDS011;62035;52.094;5.112;2024-03-06T02:50:02;37.08;;;21.20;;
62030;SDS011;62035;52.094;5.112;2024-03-06T02:52:30;33.33;;;20.27;;
62030;SDS011;62035;52.094;5.112;2024-03-06T02:54:59;35.03;;;20.42;;
62030;SDS011;62035;52.094;5.112;2024-03-06T02:57:26;33.03;;;19.67;;
62030;SDS011;62035;52.094;5.112;2024-03-06T02:59:54;38.65;;;20.02;;
62030;SDS011;62035;52.094;5.112;2024-03-06T03:02:22;38.70;;;20.00;;
62030;SDS011;62035;52.094;5.112;2024-03-06T03:04:49;33.55;;;19.92;;
62030;SDS011;62035;52.094;5.112;2024-03-06T03:07:17;35.20;;;20.15;;
62030;SDS011;62035;52.094;5.112;2024-03-06T03:09:45;39.95;;;21.73;;
62030;SDS011;62035;52.094;5.112;2024-03-06T03:12:14;30.73;;;18.23;;
62030;SDS011;62035;52.094;5.112;2024-03-06T03:14:41;34.50;;;19.83;;
62030;SDS011;62035;52.094;5.112;2024-03-06T03:17:09;37.67;;;19.35;;
62030;SDS011;62035;52.094;5.112;2024-03-06T03:19:36;35.55;;;19.00;;
62030;SDS011;62035;52.094;5.112;2024-03-06T03:22:05;35.25;;;20.38;;
62030;SDS011;62035;52.094;5.112;2024-03-06T03:24:33;34.55;;;19.67;;
62030;SDS011;62035;52.094;5.112;2024-03-06T03:27:01;38.70;;;19.88;;
62030;SDS011;62035;52.094;5.112;2024-03-06T03:29:29;34.08;;;20.33;;
62030;SDS011;62035;52.094;5.112;2024-03-06T03:31:56;34.63;;;19.92;;
62030;SDS011;62035;52.094;5.112;2024-03-06T03:34:23;35.92;;;20.17;;
62030;SDS011;62035;52.094;5.112;2024-03-06T03:36:51;35.45;;;20.10;;
62030;SDS011;62035;52.094;5.112;2024-03-06T03:39:18;38.60;;;19.80;;
62030;SDS011;62035;52.094;5.112;2024-03-06T03:41:48;35.47;;;19.95;;
62030;SDS011;62035;52.094;5.112;2024-03-06T03:44:15;37.22;;;19.73;;
62030;SDS011;62035;52.094;5.112;2024-03-06T03:46:45;33.50;;;19.55;;
62030;SDS011;62035;52.094;5.112;2024-03-06T03:49:13;36.83;;;20.17;;
62030;SDS011;62035;52.094;5.112;2024-03-06T03:51:40;34.45;;;20.00;;
62030;SDS011;62035;52.094;5.112;2024-03-06T03:54:07;35.08;;;19.67;;
62030;SDS011;62035;52.094;5.112;2024-03-06T03:56:35;39.65;;;20.23;;
62030;SDS011;62035;52.094;5.112;2024-03-06T03:59:03;38.42;;;20.55;;
62030;SDS011;62035;52.094;5.112;2024-03-06T04:01:30;34.70;;;19.85;;
62030;SDS011;62035;52.094;5.112;2024-03-06T04:03:59;35.95;;;20.75;;
62030;SDS011;62035;52.094;5.112;2024-03-06T04:06:26;31.33;;;19.60;;
62030;SDS011;62035;52.094;5.112;2024-03-06T04:08:53;36.60;;;20.35;;
62030;SDS011;62035;52.094;5.112;2024-03-06T04:11:20;36.38;;;21.02;;
62030;SDS011;62035;52.094;5.112;2024-03-06T04:13:47;39.35;;;22.38;;
62030;SDS011;62035;52.094;5.112;2024-03-06T04:16:15;38.95;;;21.65;;
62030;SDS011;62035;52.094;5.112;2024-03-06T04:18:43;37.92;;;21.27;;
62030;SDS011;62035;52.094;5.112;2024-03-06T04:21:12;38.83;;;21.33;;
62030;SDS011;62035;52.094;5.112;2024-03-06T04:23:40;40.42;;;20.65;;
62030;SDS011;62035;52.094;5.112;2024-03-06T04:26:07;40.50;;;21.77;;
62030;SDS011;62035;52.094;5.112;2024-03-06T04:28:35;37.08;;;21.10;;
62030;SDS011;62035;52.094;5.112;2024-03-06T04:31:02;38.60;;;21.25;;
62030;SDS011;62035;52.094;5.112;2024-03-06T04:33:29;36.95;;;19.63;;
62030;SDS011;62035;52.094;5.112;2024-03-06T04:35:56;35.75;;;22.35;;
62030;SDS011;62035;52.094;5.112;2024-03-06T04:38:25;41.10;;;21.58;;
62030;SDS011;62035;52.094;5.112;2024-03-06T04:40:52;36.22;;;20.45;;
62030;SDS011;62035;52.094;5.112;2024-03-06T04:43:19;45.50;;;23.00;;
62030;SDS011;62035;52.094;5.112;2024-03-06T04:45:46;41.55;;;20.90;;
62030;SDS011;62035;52.094;5.112;2024-03-06T04:48:13;43.20;;;23.20;;
62030;SDS011;62035;52.094;5.112;2024-03-06T04:50:41;39.75;;;22.17;;
62030;SDS011;62035;52.094;5.112;2024-03-06T04:53:08;36.70;;;21.00;;
62030;SDS011;62035;52.094;5.112;2024-03-06T04:55:37;39.20;;;22.25;;
62030;SDS011;62035;52.094;5.112;2024-03-06T04:58:05;40.08;;;21.58;;
62030;SDS011;62035;52.094;5.112;2024-03-06T05:00:32;40.13;;;22.20;;
62030;SDS011;62035;52.094;5.112;2024-03-06T05:02:59;43.85;;;22.30;;
62030;SDS011;62035;52.094;5.112;2024-03-06T05:05:26;41.67;;;22.35;;
62030;SDS011;62035;52.094;5.112;2024-03-06T05:07:55;43.33;;;22.95;;
62030;SDS011;62035;52.094;5.112;2024-03-06T05:10:22;39.35;;;22.08;;
62030;SDS011;62035;52.094;5.112;2024-03-06T05:12:50;40.67;;;23.85;;
62030;SDS011;62035;52.094;5.112;2024-03-06T05:15:18;43.75;;;23.17;;
62030;SDS011;62035;52.094;5.112;2024-03-06T05:17:45;38.42;;;23.33;;
62030;SDS011;62035;52.094;5.112;2024-03-06T05:20:13;42.85;;;24.02;;
62030;SDS011;62035;52.094;5.112;2024-03-06T05:22:40;44.85;;;24.55;;
62030;SDS011;62035;52.094;5.112;2024-03-06T05:25:08;45.70;;;23.90;;
62030;SDS011;62035;52.094;5.112;2024-03-06T05:27:35;44.42;;;23.70;;
62030;SDS011;62035;52.094;5.112;2024-03-06T05:30:05;44.40;;;23.27;;
62030;SDS011;62035;52.094;5.112;2024-03-06T05:32:34;49.93;;;25.27;;
62030;SDS011;62035;52.094;5.112;2024-03-06T05:35:01;48.38;;;24.45;;
62030;SDS011;62035;52.094;5.112;2024-03-06T05:37:29;50.42;;;24.00;;
62030;SDS011;62035;52.094;5.112;2024-03-06T05:39:56;51.28;;;24.98;;
62030;SDS011;62035;52.094;5.112;2024-03-06T05:42:23;50.00;;;25.38;;
62030;SDS011;62035;52.094;5.112;2024-03-06T05:44:50;52.42;;;26.52;;
62030;SDS011;62035;52.094;5.112;2024-03-06T05:47:21;64.78;;;26.33;;
62030;SDS011;62035;52.094;5.112;2024-03-06T05:49:48;65.68;;;25.45;;
62030;SDS011;62035;52.094;5.112;2024-03-06T05:52:16;53.92;;;25.90;;
62030;SDS011;62035;52.094;5.112;2024-03-06T05:54:43;60.67;;;25.58;;
62030;SDS011;62035;52.094;5.112;2024-03-06T05:57:10;60.03;;;26.23;;
62030;SDS011;62035;52.094;5.112;2024-03-06T05:59:37;68.10;;;28.25;;
62030;SDS011;62035;52.094;5.112;2024-03-06T06:02:05;65.15;;;25.73;;
62030;SDS011;62035;52.094;5.112;2024-03-06T06:04:34;68.40;;;25.55;;
62030;SDS011;62035;52.094;5.112;2024-03-06T06:07:02;55.55;;;25.55;;
62030;SDS011;62035;52.094;5.112;2024-03-06T06:09:29;55.15;;;25.35;;
62030;SDS011;62035;52.094;5.112;2024-03-06T06:11:57;65.90;;;27.83;;
62030;SDS011;62035;52.094;5.112;2024-03-06T06:14:25;56.53;;;26.17;;
62030;SDS011;62035;52.094;5.112;2024-03-06T06:16:52;69.28;;;24.48;;
62030;SDS011;62035;52.094;5.112;2024-03-06T06:19:19;80.70;;;24.95;;
62030;SDS011;62035;52.094;5.112;2024-03-06T06:21:48;51.97;;;24.35;;
62030;SDS011;62035;52.094;5.112;2024-03-06T06:24:15;54.78;;;24.42;;
62030;SDS011;62035;52.094;5.112;2024-03-06T06:26:42;56.65;;;24.60;;
62030;SDS011;62035;52.094;5.112;2024-03-06T06:29:09;58.03;;;25.63;;
62030;SDS011;62035;52.094;5.112;2024-03-06T06:31:37;59.60;;;24.15;;
62030;SDS011;62035;52.094;5.112;2024-03-06T06:34:04;61.67;;;25.05;;
62030;SDS011;62035;52.094;5.112;2024-03-06T06:36:32;57.95;;;24.83;;
62030;SDS011;62035;52.094;5.112;2024-03-06T06:39:00;61.75;;;25.77;;
62030;SDS011;62035;52.094;5.112;2024-03-06T06:41:31;83.97;;;25.60;;
62030;SDS011;62035;52.094;5.112;2024-03-06T06:43:59;72.85;;;23.63;;
62030;SDS011;62035;52.094;5.112;2024-03-06T06:46:28;54.75;;;25.30;;
62030;SDS011;62035;52.094;5.112;2024-03-06T06:48:55;62.17;;;23.05;;
62030;SDS011;62035;52.094;5.112;2024-03-06T06:51:22;55.63;;;25.25;;
62030;SDS011;62035;52.094;5.112;2024-03-06T06:53:50;51.72;;;23.65;;
62030;SDS011;62035;52.094;5.112;2024-03-06T06:56:18;48.75;;;24.33;;
62030;SDS011;62035;52.094;5.112;2024-03-06T06:58:49;55.53;;;23.65;;
62030;SDS011;62035;52.094;5.112;2024-03-06T07:01:16;48.97;;;23.20;;
62030;SDS011;62035;52.094;5.112;2024-03-06T07:03:44;58.33;;;24.27;;
62030;SDS011;62035;52.094;5.112;2024-03-06T07:06:11;51.88;;;25.90;;
62030;SDS011;62035;52.094;5.112;2024-03-06T07:08:38;45.88;;;23.63;;
62030;SDS011;62035;52.094;5.112;2024-03-06T07:11:06;51.97;;;24.95;;
62030;SDS011;62035;52.094;5.112;2024-03-06T07:13:34;64.93;;;30.00;;
62030;SDS011;62035;52.094;5.112;2024-03-06T07:16:02;54.17;;;25.98;;
62030;SDS011;62035;52.094;5.112;2024-03-06T07:18:29;47.22;;;27.00;;
62030;SDS011;62035;52.094;5.112;2024-03-06T07:20:57;48.47;;;26.33;;
62030;SDS011;62035;52.094;5.112;2024-03-06T07:23:24;52.80;;;27.55;;
62030;SDS011;62035;52.094;5.112;2024-03-06T07:25:51;52.97;;;28.05;;
62030;SDS011;62035;52.094;5.112;2024-03-06T07:28:19;44.38;;;24.02;;
62030;SDS011;62035;52.094;5.112;2024-03-06T07:30:48;43.13;;;23.02;;
62030;SDS011;62035;52.094;5.112;2024-03-06T07:33:15;41.42;;;23.40;;
62030;SDS011;62035;52.094;5.112;2024-03-06T07:35:42;46.58;;;24.63;;
62030;SDS011;62035;52.094;5.112;2024-03-06T07:38:09;41.05;;;21.63;;
62030;SDS011;62035;52.094;5.112;2024-03-06T07:40:36;33.50;;;21.13;;
62030;SDS011;62035;52.094;5.112;2024-03-06T07:43:04;36.35;;;21.98;;
62030;SDS011;62035;52.094;5.112;2024-03-06T07:45:31;41.38;;;21.48;;
62030;SDS011;62035;52.094;5.112;2024-03-06T07:48:00;45.67;;;22.45;;
62030;SDS011;62035;52.094;5.112;2024-03-06T07:50:28;36.75;;;22.02;;
62030;SDS011;62035;52.094;5.112;2024-03-06T07:52:55;38.45;;;22.73;;
62030;SDS011;62035;52.094;5.112;2024-03-06T07:55:22;40.10;;;22.50;;
62030;SDS011;62035;52.094;5.112;2024-03-06T07:57:49;52.47;;;26.67;;
62030;SDS011;62035;52.094;5.112;2024-03-06T08:00:17;40.88;;;22.15;;
62030;SDS011;62035;52.094;5.112;2024-03-06T08:02:45;43.25;;;23.08;;
62030;SDS011;62035;52.094;5.112;2024-03-06T08:05:17;35.67;;;21.33;;
62030;SDS011;62035;52.094;5.112;2024-03-06T08:07:44;42.15;;;22.60;;
62030;SDS011;62035;52.094;5.112;2024-03-06T08:10:12;39.47;;;23.25;;
62030;SDS011;62035;52.094;5.112;2024-03-06T08:12:40;37.95;;;21.98;;
62030;SDS011;62035;52.094;5.112;2024-03-06T08:15:09;40.42;;;22.02;;
62030;SDS011;62035;52.094;5.112;2024-03-06T08:17:37;38.15;;;21.20;;
62030;SDS011;62035;52.094;5.112;2024-03-06T08:20:07;46.30;;;23.42;;
62030;SDS011;62035;52.094;5.112;2024-03-06T08:22:37;40.20;;;23.35;;
62030;SDS011;62035;52.094;5.112;2024-03-06T08:25:06;40.00;;;23.27;;
62030;SDS011;62035;52.094;5.112;2024-03-06T08:27:34;39.70;;;22.15;;
62030;SDS011;62035;52.094;5.112;2024-03-06T08:30:03;36.83;;;21.27;;
62030;SDS011;62035;52.094;5.112;2024-03-06T08:32:31;38.83;;;21.60;;
62030;SDS011;62035;52.094;5.112;2024-03-06T08:34:58;35.13;;;20.02;;
62030;SDS011;62035;52.094;5.112;2024-03-06T08:37:26;39.45;;;22.85;;
62030;SDS011;62035;52.094;5.112;2024-03-06T08:39:54;36.85;;;22.20;;
62030;SDS011;62035;52.094;5.112;2024-03-06T08:42:21;37.65;;;22.67;;
62030;SDS011;62035;52.094;5.112;2024-03-06T08:44:48;37.85;;;21.52;;
62030;SDS011;62035;52.094;5.112;2024-03-06T08:47:16;41.58;;;22.42;;
62030;SDS011;62035;52.094;5.112;2024-03-06T08:49:43;44.15;;;23.23;;
62030;SDS011;62035;52.094;5.112;2024-03-06T08:52:10;40.78;;;20.90;;
62030;SDS011;62035;52.094;5.112;2024-03-06T08:54:38;37.55;;;21.52;;
62030;SDS011;62035;52.094;5.112;2024-03-06T08:57:09;34.67;;;21.80;;
62030;SDS011;62035;52.094;5.112;2024-03-06T08:59:37;35.58;;;21.67;;
62030;SDS011;62035;52.094;5.112;2024-03-06T09:02:13;36.53;;;21.50;;
62030;SDS011;62035;52.094;5.112;2024-03-06T09:04:41;31.48;;;19.83;;
62030;SDS011;62035;52.094;5.112;2024-03-06T09:07:08;33.67;;;20.98;;
62030;SDS011;62035;52.094;5.112;2024-03-06T09:09:36;35.05;;;19.77;;
62030;SDS011;62035;52.094;5.112;2024-03-06T09:12:05;36.67;;;20.65;;
62030;SDS011;62035;52.094;5.112;2024-03-06T09:14:34;30.75;;;19.13;;
62030;SDS011;62035;52.094;5.112;2024-03-06T09:17:02;36.83;;;19.42;;
62030;SDS011;62035;52.094;5.112;2024-03-06T09:19:29;37.67;;;20.30;;
62030;SDS011;62035;52.094;5.112;2024-03-06T09:21:57;33.97;;;19.42;;
62030;SDS011;62035;52.094;5.112;2024-03-06T09:24:25;33.58;;;19.73;;
62030;SDS011;62035;52.094;5.112;2024-03-06T09:26:52;32.78;;;20.30;;
62030;SDS011;62035;52.094;5.112;2024-03-06T09:29:19;31.30;;;20.10;;
62030;SDS011;62035;52.094;5.112;2024-03-06T09:31:48;34.70;;;20.13;;
62030;SDS011;62035;52.094;5.112;2024-03-06T09:34:16;34.58;;;20.75;;
62030;SDS011;62035;52.094;5.112;2024-03-06T09:36:45;34.67;;;20.58;;
62030;SDS011;62035;52.094;5.112;2024-03-06T09:39:13;35.20;;;19.75;;
62030;SDS011;62035;52.094;5.112;2024-03-06T09:41:42;36.53;;;20.10;;
62030;SDS011;62035;52.094;5.112;2024-03-06T09:44:10;31.05;;;19.13;;
62030;SDS011;62035;52.094;5.112;2024-03-06T09:46:40;35.33;;;19.65;;
62030;SDS011;62035;52.094;5.112;2024-03-06T09:49:11;36.40;;;20.45;;
62030;SDS011;62035;52.094;5.112;2024-03-06T09:51:41;33.13;;;20.60;;
62030;SDS011;62035;52.094;5.112;2024-03-06T09:54:11;30.17;;;19.77;;
62030;SDS011;62035;52.094;5.112;2024-03-06T09:56:40;35.50;;;20.08;;
62030;SDS011;62035;52.094;5.112;2024-03-06T09:59:09;31.02;;;20.00;;
62030;SDS011;62035;52.094;5.112;2024-03-06T10:01:37;30.67;;;19.08;;
62030;SDS011;62035;52.094;5.112;2024-03-06T10:09:28;29.38;;;18.85;;
62030;SDS011;62035;52.094;5.112;2024-03-06T10:11:57;31.50;;;18.90;;
62030;SDS011;62035;52.094;5.112;2024-03-06T10:14:24;33.97;;;20.52;;
62030;SDS011;62035;52.094;5.112;2024-03-06T10:16:52;36.35;;;19.77;;
62030;SDS011;62035;52.094;5.112;2024-03-06T10:19:22;37.45;;;21.45;;
62030;SDS011;62035;52.094;5.112;2024-03-06T10:21:51;37.30;;;21.58;;
62030;SDS011;62035;52.094;5.112;2024-03-06T10:24:18;36.97;;;21.48;;
62030;SDS011;62035;52.094;5.112;2024-03-06T10:26:47;35.92;;;21.50;;
62030;SDS011;62035;52.094;5.112;2024-03-06T10:29:17;39.53;;;20.88;;
62030;SDS011;62035;52.094;5.112;2024-03-06T10:31:48;32.05;;;19.92;;
62030;SDS011;62035;52.094;5.112;2024-03-06T10:34:16;36.22;;;20.13;;
62030;SDS011;62035;52.094;5.112;2024-03-06T10:36:43;34.67;;;20.60;;
62030;SDS011;62035;52.094;5.112;2024-03-06T10:39:12;33.60;;;20.05;;
62030;SDS011;62035;52.094;5.112;2024-03-06T10:41:40;31.67;;;19.20;;
62030;SDS011;62035;52.094;5.112;2024-03-06T10:44:10;39.40;;;21.52;;
62030;SDS011;62035;52.094;5.112;2024-03-06T10:46:41;30.58;;;19.45;;
62030;SDS011;62035;52.094;5.112;2024-03-06T10:49:11;34.90;;;19.23;;
62030;SDS011;62035;52.094;5.112;2024-03-06T10:51:40;32.78;;;18.80;;
62030;SDS011;62035;52.094;5.112;2024-03-06T10:54:10;32.38;;;18.80;;
62030;SDS011;62035;52.094;5.112;2024-03-06T10:56:40;36.05;;;19.88;;
62030;SDS011;62035;52.094;5.112;2024-03-06T10:59:09;35.75;;;20.50;;
62030;SDS011;62035;52.094;5.112;2024-03-06T11:01:39;31.85;;;19.67;;
62030;SDS011;62035;52.094;5.112;2024-03-06T11:04:09;29.80;;;18.92;;
62030;SDS011;62035;52.094;5.112;2024-03-06T11:06:38;27.67;;;17.73;;
62030;SDS011;62035;52.094;5.112;2024-03-06T11:09:05;28.83;;;17.15;;
62030;SDS011;62035;52.094;5.112;2024-03-06T11:11:48;32.78;;;17.17;;
62030;SDS011;62035;52.094;5.112;2024-03-06T11:14:17;33.90;;;18.70;;
62030;SDS011;62035;52.094;5.112;2024-03-06T11:17:01;29.27;;;19.02;;
62030;SDS011;62035;52.094;5.112;2024-03-06T11:19:29;31.20;;;19.40;;
62030;SDS011;62035;52.094;5.112;2024-03-06T11:21:57;39.05;;;21.05;;
62030;SDS011;62035;52.094;5.112;2024-03-06T11:24:31;31.55;;;18.65;;
62030;SDS011;62035;52.094;5.112;2024-03-06T11:27:01;32.65;;;18.65;;
62030;SDS011;62035;52.094;5.112;2024-03-06T11:32:36;31.90;;;17.80;;
62030;SDS011;62035;52.094;5.112;2024-03-06T11:35:04;29.42;;;17.17;;
62030;SDS011;62035;52.094;5.112;2024-03-06T11:37:34;28.52;;;16.23;;
62030;SDS011;62035;52.094;5.112;2024-03-06T11:40:02;27.25;;;17.00;;
62030;SDS011;62035;52.094;5.112;2024-03-06T11:42:35;28.75;;;16.77;;
62030;SDS011;62035;52.094;5.112;2024-03-06T11:45:12;27.17;;;16.63;;
62030;SDS011;62035;52.094;5.112;2024-03-06T11:47:55;28.33;;;16.38;;
62030;SDS011;62035;52.094;5.112;2024-03-06T11:50:23;25.95;;;16.05;;
62030;SDS011;62035;52.094;5.112;2024-03-06T11:52:51;31.40;;;16.08;;
62030;SDS011;62035;52.094;5.112;2024-03-06T11:55:20;28.55;;;16.70;;
62030;SDS011;62035;52.094;5.112;2024-03-06T11:57:49;28.52;;;15.88;;
62030;SDS011;62035;52.094;5.112;2024-03-06T12:00:16;23.63;;;14.32;;
62030;SDS011;62035;52.094;5.112;2024-03-06T12:02:44;25.63;;;15.82;;
62030;SDS011;62035;52.094;5.112;2024-03-06T12:05:11;25.88;;;15.20;;
62030;SDS011;62035;52.094;5.112;2024-03-06T12:07:44;25.75;;;13.95;;
62030;SDS011;62035;52.094;5.112;2024-03-06T12:10:12;24.65;;;13.85;;
62030;SDS011;62035;52.094;5.112;2024-03-06T12:12:40;25.33;;;14.90;;
62030;SDS011;62035;52.094;5.112;2024-03-06T12:15:10;25.98;;;14.07;;
62030;SDS011;62035;52.094;5.112;2024-03-06T12:17:42;26.67;;;14.85;;
62030;SDS011;62035;52.094;5.112;2024-03-06T12:20:11;25.20;;;14.05;;
62030;SDS011;62035;52.094;5.112;2024-03-06T12:22:43;25.38;;;15.68;;
62030;SDS011;62035;52.094;5.112;2024-03-06T12:25:17;27.85;;;16.20;;
62030;SDS011;62035;52.094;5.112;2024-03-06T12:27:45;27.25;;;16.77;;
62030;SDS011;62035;52.094;5.112;2024-03-06T12:30:15;28.95;;;16.42;;
62030;SDS011;62035;52.094;5.112;2024-03-06T12:32:43;25.27;;;14.30;;
62030;SDS011;62035;52.094;5.112;2024-03-06T12:35:10;21.45;;;13.35;;
62030;SDS011;62035;52.094;5.112;2024-03-06T12:37:38;23.10;;;14.20;;
62030;SDS011;62035;52.094;5.112;2024-03-06T12:40:05;23.92;;;13.95;;
62030;SDS011;62035;52.094;5.112;2024-03-06T12:42:38;21.63;;;12.77;;
62030;SDS011;62035;52.094;5.112;2024-03-06T12:45:06;21.73;;;11.65;;
62030;SDS011;62035;52.094;5.112;2024-03-06T12:47:35;21.60;;;12.00;;
62030;SDS011;62035;52.094;5.112;2024-03-06T12:50:03;18.45;;;11.10;;
62030;SDS011;62035;52.094;5.112;2024-03-06T12:52:33;14.07;;;9.80;;
62030;SDS011;62035;52.094;5.112;2024-03-06T12:55:01;17.27;;;11.18;;
62030;SDS011;62035;52.094;5.112;2024-03-06T12:57:30;17.25;;;11.38;;
62030;SDS011;62035;52.094;5.112;2024-03-06T12:59:57;17.15;;;11.18;;
62030;SDS011;62035;52.094;5.112;2024-03-06T13:02:25;21.23;;;11.85;;
62030;SDS011;62035;52.094;5.112;2024-03-06T13:04:54;15.95;;;9.98;;
62030;SDS011;62035;52.094;5.112;2024-03-06T13:07:21;13.73;;;9.18;;
62030;SDS011;62035;52.094;5.112;2024-03-06T13:09:48;20.30;;;11.40;;
62030;SDS011;62035;52.094;5.112;2024-03-06T13:12:16;12.73;;;8.30;;
62030;SDS011;62035;52.094;5.112;2024-03-06T13:14:43;9.60;;;6.22;;
62030;SDS011;62035;52.094;5.112;2024-03-06T13:17:11;13.63;;;8.18;;
62030;SDS011;62035;52.094;5.112;2024-03-06T13:19:38;12.15;;;7.82;;
62030;SDS011;62035;52.094;5.112;2024-03-06T13:22:07;13.93;;;8.23;;
62030;SDS011;62035;52.094;5.112;2024-03-06T13:24:34;14.35;;;8.68;;
62030;SDS011;62035;52.094;5.112;2024-03-06T13:27:02;14.50;;;7.32;;
62030;SDS011;62035;52.094;5.112;2024-03-06T13:29:29;13.65;;;8.40;;
62030;SDS011;62035;52.094;5.112;2024-03-06T13:31:56;13.63;;;9.18;;
62030;SDS011;62035;52.094;5.112;2024-03-06T13:34:23;13.77;;;8.73;;
62030;SDS011;62035;52.094;5.112;2024-03-06T13:36:51;13.82;;;9.20;;
62030;SDS011;62035;52.094;5.112;2024-03-06T13:39:20;15.60;;;9.32;;
62030;SDS011;62035;52.094;5.112;2024-03-06T13:41:48;15.70;;;8.27;;
62030;SDS011;62035;52.094;5.112;2024-03-06T13:44:15;10.63;;;7.10;;
62030;SDS011;62035;52.094;5.112;2024-03-06T13:46:42;8.73;;;5.50;;
62030;SDS011;62035;52.094;5.112;2024-03-06T13:49:12;10.82;;;6.50;;
62030;SDS011;62035;52.094;5.112;2024-03-06T13:52:01;10.95;;;6.82;;
62030;SDS011;62035;52.094;5.112;2024-03-06T13:54:30;9.77;;;6.07;;
62030;SDS011;62035;52.094;5.112;2024-03-06T13:56:57;12.23;;;7.15;;
62030;SDS011;62035;52.094;5.112;2024-03-06T13:59:27;10.00;;;6.55;;
62030;SDS011;62035;52.094;5.112;2024-03-06T14:01:55;11.90;;;6.90;;
62030;SDS011;62035;52.094;5.112;2024-03-06T14:04:22;10.60;;;5.30;;
62030;SDS011;62035;52.094;5.112;2024-03-06T14:06:50;11.07;;;5.70;;
62030;SDS011;62035;52.094;5.112;2024-03-06T14:09:17;9.35;;;5.50;;
62030;SDS011;62035;52.094;5.112;2024-03-06T14:11:46;12.32;;;6.47;;
62030;SDS011;62035;52.094;5.112;2024-03-06T14:14:13;12.43;;;6.50;;
62030;SDS011;62035;52.094;5.112;2024-03-06T14:16:40;10.65;;;6.43;;
62030;SDS011;62035;52.094;5.112;2024-03-06T14:19:08;11.52;;;5.50;;
62030;SDS011;62035;52.094;5.112;2024-03-06T14:21:36;12.75;;;5.25;;
62030;SDS011;62035;52.094;5.112;2024-03-06T14:24:04;11.02;;;5.78;;
62030;SDS011;62035;52.094;5.112;2024-03-06T14:26:33;9.27;;;5.57;;
62030;SDS011;62035;52.094;5.112;2024-03-06T14:29:02;10.90;;;5.57;;
62030;SDS011;62035;52.094;5.112;2024-03-06T14:31:31;11.82;;;5.47;;
62030;SDS011;62035;52.094;5.112;2024-03-06T14:33:59;10.32;;;5.75;;
62030;SDS011;62035;52.094;5.112;2024-03-06T14:36:26;8.73;;;5.50;;